sensor_id;sensor_type;location;lat;lon;timestamp;pressure;altitude;pressure_sealevel;temperature;humidity
6829;BME280;17930;48.592;8.868;2023-04-22T00:00:05;96131.97;;;10.66;100.00
6829;BME280;17930;48.592;8.868;2023-04-22T00:02:33;96126.28;;;10.64;100.00
6829;BME280;17930;48.592;8.868;2023-04-22T00:05:03;96121.44;;;10.58;100.00
6829;BME280;17930;48.592;8.868;2023-04-22T00:07:29;96122.28;;;10.53;100.00
6829;BME280;17930;48.592;8.868;2023-04-22T00:09:56;96124.31;;;10.56;100.00
6829;BME280;17930;48.592;8.868;2023-04-22T00:12:23;96129.53;;;10.56;100.00
6829;BME280;17930;48.592;8.868;2023-04-22T00:14:49;96128.56;;;10.52;100.00
6829;BME280;17930;48.592;8.868;2023-04-22T00:17:16;96117.88;;;10.54;100.00
6829;BME280;17930;48.592;8.868;2023-04-22T00:19:43;96121.81;;;10.51;100.00
6829;BME280;17930;48.592;8.868;2023-04-22T00:22:10;96128.19;;;10.45;100.00
6829;BME280;17930;48.592;8.868;2023-04-22T00:24:37;96123.41;;;10.34;100.00
6829;BME280;17930;48.592;8.868;2023-04-22T00:27:04;96125.81;;;10.30;100.00
6829;BME280;17930;48.592;8.868;2023-04-22T00:29:30;96120.97;;;10.24;100.00
6829;BME280;17930;48.592;8.868;2023-04-22T00:31:57;96130.19;;;10.17;100.00
6829;BME280;17930;48.592;8.868;2023-04-22T00:34:24;96124.56;;;10.10;100.00
6829;BME280;17930;48.592;8.868;2023-04-22T00:36:50;96126.41;;;10.09;100.00
6829;BME280;17930;48.592;8.868;2023-04-22T00:39:18;96125.13;;;10.07;100.00
6829;BME280;17930;48.592;8.868;2023-04-22T00:41:45;96130.84;;;10.09;100.00
6829;BME280;17930;48.592;8.868;2023-04-22T00:44:12;96125.06;;;10.12;100.00
6829;BME280;17930;48.592;8.868;2023-04-22T00:46:38;96122.53;;;10.07;100.00
6829;BME280;17930;48.592;8.868;2023-04-22T00:49:06;96120.75;;;10.02;100.00
6829;BME280;17930;48.592;8.868;2023-04-22T00:51:32;96114.84;;;9.97;100.00
6829;BME280;17930;48.592;8.868;2023-04-22T00:53:59;96121.66;;;9.93;100.00
6829;BME280;17930;48.592;8.868;2023-04-22T00:56:28;96128.41;;;9.94;100.00
6829;BME280;17930;48.592;8.868;2023-04-22T00:58:56;96123.59;;;10.06;100.00
6829;BME280;17930;48.592;8.868;2023-04-22T01:01:23;96121.53;;;10.03;100.00
6829;BME280;17930;48.592;8.868;2023-04-22T01:03:50;96120.84;;;9.97;100.00
6829;BME280;17930;48.592;8.868;2023-04-22T01:06:18;96127.13;;;9.91;100.00
6829;BME280;17930;48.592;8.868;2023-04-22T01:08:45;96117.09;;;9.85;100.00
6829;BME280;17930;48.592;8.868;2023-04-22T01:11:12;96121.59;;;9.79;100.00
6829;BME280;17930;48.592;8.868;2023-04-22T01:13:40;96117.22;;;9.75;100.00
6829;BME280;17930;48.592;8.868;2023-04-22T01:16:07;96114.53;;;9.80;100.00
6829;BME280;17930;48.592;8.868;2023-04-22T01:18:35;96122.88;;;9.82;100.00
6829;BME280;17930;48.592;8.868;2023-04-22T01:21:02;96119.97;;;9.83;100.00
6829;BME280;17930;48.592;8.868;2023-04-22T01:23:30;96119.41;;;9.86;100.00
6829;BME280;17930;48.592;8.868;2023-04-22T01:25:56;96117.66;;;9.82;100.00
6829;BME280;17930;48.592;8.868;2023-04-22T01:28:23;96124.69;;;9.81;100.00
6829;BME280;17930;48.592;8.868;2023-04-22T01:30:50;96119.84;;;9.75;100.00
6829;BME280;17930;48.592;8.868;2023-04-22T01:33:17;96129.31;;;9.66;100.00
6829;BME280;17930;48.592;8.868;2023-04-22T01:35:44;96123.19;;;9.57;100.00
6829;BME280;17930;48.592;8.868;2023-04-22T01:38:11;96127.69;;;9.52;100.00
6829;BME280;17930;48.592;8.868;2023-04-22T01:40:39;96127.47;;;9.48;100.00
6829;BME280;17930;48.592;8.868;2023-04-22T01:43:06;96122.84;;;9.45;100.00
6829;BME280;17930;48.592;8.868;2023-04-22T01:45:32;96119.28;;;9.36;100.00
6829;BME280;17930;48.592;8.868;2023-04-22T01:47:59;96122.44;;;9.33;100.00
6829;BME280;17930;48.592;8.868;2023-04-22T01:50:26;96137.03;;;9.34;100.00
6829;BME280;17930;48.592;8.868;2023-04-22T01:52:52;96131.81;;;9.34;100.00
6829;BME280;17930;48.592;8.868;2023-04-22T01:55:19;96128.22;;;9.30;100.00
6829;BME280;17930;48.592;8.868;2023-04-22T01:57:47;96123.09;;;9.25;100.00
6829;BME280;17930;48.592;8.868;2023-04-22T02:00:14;96126.72;;;9.24;100.00
6829;BME280;17930;48.592;8.868;2023-04-22T02:02:40;96125.72;;;9.20;100.00
6829;BME280;17930;48.592;8.868;2023-04-22T02:05:08;96126.56;;;9.16;100.00
6829;BME280;17930;48.592;8.868;2023-04-22T02:07:34;96127.97;;;9.09;100.00
6829;BME280;17930;48.592;8.868;2023-04-22T02:10:02;96127.16;;;9.08;100.00
6829;BME280;17930;48.592;8.868;2023-04-22T02:12:29;96128.50;;;9.06;100.00
6829;BME280;17930;48.592;8.868;2023-04-22T02:14:56;96129.41;;;9.19;100.00
6829;BME280;17930;48.592;8.868;2023-04-22T02:17:23;96123.56;;;9.27;100.00
6829;BME280;17930;48.592;8.868;2023-04-22T02:19:50;96131.50;;;9.18;100.00
6829;BME280;17930;48.592;8.868;2023-04-22T02:22:16;96124.31;;;9.10;100.00
6829;BME280;17930;48.592;8.868;2023-04-22T02:24:43;96137.03;;;9.11;100.00
6829;BME280;17930;48.592;8.868;2023-04-22T02:27:10;96135.69;;;9.14;100.00
6829;BME280;17930;48.592;8.868;2023-04-22T02:29:37;96134.94;;;9.13;100.00
6829;BME280;17930;48.592;8.868;2023-04-22T02:32:05;96140.91;;;9.14;100.00
6829;BME280;17930;48.592;8.868;2023-04-22T02:34:31;96131.28;;;9.14;100.00
6829;BME280;17930;48.592;8.868;2023-04-22T02:36:58;96129.19;;;8.93;100.00
6829;BME280;17930;48.592;8.868;2023-04-22T02:39:25;96128.81;;;8.76;100.00
6829;BME280;17930;48.592;8.868;2023-04-22T02:41:51;96136.44;;;8.68;100.00
6829;BME280;17930;48.592;8.868;2023-04-22T02:44:18;96137.28;;;8.63;100.00
6829;BME280;17930;48.592;8.868;2023-04-22T02:46:45;96137.75;;;8.65;100.00
6829;BME280;17930;48.592;8.868;2023-04-22T02:49:13;96136.06;;;8.51;100.00
6829;BME280;17930;48.592;8.868;2023-04-22T02:51:39;96137.44;;;8.43;100.00
6829;BME280;17930;48.592;8.868;2023-04-22T02:54:06;96132.84;;;8.35;100.00
6829;BME280;17930;48.592;8.868;2023-04-22T02:56:33;96127.16;;;8.28;100.00
6829;BME280;17930;48.592;8.868;2023-04-22T02:59:00;96133.19;;;8.24;100.00
6829;BME280;17930;48.592;8.868;2023-04-22T03:01:27;96129.81;;;8.23;100.00
6829;BME280;17930;48.592;8.868;2023-04-22T03:03:54;96129.75;;;8.33;100.00
6829;BME280;17930;48.592;8.868;2023-04-22T03:06:22;96131.72;;;8.41;100.00
6829;BME280;17930;48.592;8.868;2023-04-22T03:08:49;96131.66;;;8.51;100.00
6829;BME280;17930;48.592;8.868;2023-04-22T03:11:16;96138.41;;;8.52;100.00
6829;BME280;17930;48.592;8.868;2023-04-22T03:13:42;96136.28;;;8.54;100.00
6829;BME280;17930;48.592;8.868;2023-04-22T03:16:09;96134.84;;;8.43;100.00
6829;BME280;17930;48.592;8.868;2023-04-22T03:18:35;96137.47;;;8.38;100.00
6829;BME280;17930;48.592;8.868;2023-04-22T03:21:02;96135.84;;;8.47;100.00
6829;BME280;17930;48.592;8.868;2023-04-22T03:23:31;96141.63;;;8.39;100.00
6829;BME280;17930;48.592;8.868;2023-04-22T03:25:57;96145.56;;;8.32;100.00
6829;BME280;17930;48.592;8.868;2023-04-22T03:28:24;96152.13;;;8.24;100.00
6829;BME280;17930;48.592;8.868;2023-04-22T03:30:51;96149.59;;;8.19;100.00
6829;BME280;17930;48.592;8.868;2023-04-22T03:33:17;96149.88;;;8.13;100.00
6829;BME280;17930;48.592;8.868;2023-04-22T03:35:46;96151.94;;;8.16;100.00
6829;BME280;17930;48.592;8.868;2023-04-22T03:38:13;96157.41;;;8.15;100.00
6829;BME280;17930;48.592;8.868;2023-04-22T03:40:41;96158.44;;;8.09;100.00
6829;BME280;17930;48.592;8.868;2023-04-22T03:43:08;96156.63;;;8.14;100.00
6829;BME280;17930;48.592;8.868;2023-04-22T03:45:34;96156.91;;;8.08;100.00
6829;BME280;17930;48.592;8.868;2023-04-22T03:48:01;96152.78;;;8.02;100.00
6829;BME280;17930;48.592;8.868;2023-04-22T03:50:27;96150.16;;;8.07;100.00
6829;BME280;17930;48.592;8.868;2023-04-22T03:52:54;96154.56;;;8.06;100.00
6829;BME280;17930;48.592;8.868;2023-04-22T03:55:21;96142.66;;;8.05;100.00
6829;BME280;17930;48.592;8.868;2023-04-22T03:57:49;96142.28;;;8.21;100.00
6829;BME280;17930;48.592;8.868;2023-04-22T04:00:15;96146.75;;;8.49;100.00
6829;BME280;17930;48.592;8.868;2023-04-22T04:02:42;96143.78;;;8.32;100.00
6829;BME280;17930;48.592;8.868;2023-04-22T04:05:09;96148.00;;;8.23;100.00
6829;BME280;17930;48.592;8.868;2023-04-22T04:07:36;96158.88;;;8.25;100.00
6829;BME280;17930;48.592;8.868;2023-04-22T04:10:03;96148.72;;;8.29;100.00
6829;BME280;17930;48.592;8.868;2023-04-22T04:12:30;96153.19;;;8.23;100.00
6829;BME280;17930;48.592;8.868;2023-04-22T04:14:58;96155.81;;;8.18;100.00
6829;BME280;17930;48.592;8.868;2023-04-22T04:17:25;96145.97;;;8.16;100.00
6829;BME280;17930;48.592;8.868;2023-04-22T04:19:53;96149.91;;;8.03;100.00
6829;BME280;17930;48.592;8.868;2023-04-22T04:22:20;96149.16;;;8.03;100.00
6829;BME280;17930;48.592;8.868;2023-04-22T04:24:47;96147.06;;;8.05;100.00
6829;BME280;17930;48.592;8.868;2023-04-22T04:27:14;96144.19;;;8.06;100.00
6829;BME280;17930;48.592;8.868;2023-04-22T04:29:41;96152.19;;;8.15;100.00
6829;BME280;17930;48.592;8.868;2023-04-22T04:32:09;96147.53;;;8.17;100.00
6829;BME280;17930;48.592;8.868;2023-04-22T04:34:35;96153.22;;;8.18;100.00
6829;BME280;17930;48.592;8.868;2023-04-22T04:37:02;96143.84;;;8.22;100.00
6829;BME280;17930;48.592;8.868;2023-04-22T04:39:29;96145.28;;;8.38;100.00
6829;BME280;17930;48.592;8.868;2023-04-22T04:41:57;96150.44;;;8.43;100.00
6829;BME280;17930;48.592;8.868;2023-04-22T04:44:25;96152.91;;;8.58;100.00
6829;BME280;17930;48.592;8.868;2023-04-22T04:46:51;96141.03;;;8.47;100.00
6829;BME280;17930;48.592;8.868;2023-04-22T04:49:20;96148.91;;;8.37;100.00
6829;BME280;17930;48.592;8.868;2023-04-22T04:51:47;96155.78;;;8.23;100.00
6829;BME280;17930;48.592;8.868;2023-04-22T04:54:14;96157.41;;;8.15;100.00
6829;BME280;17930;48.592;8.868;2023-04-22T04:56:41;96149.50;;;8.29;100.00
6829;BME280;17930;48.592;8.868;2023-04-22T04:59:07;96151.66;;;8.17;100.00
6829;BME280;17930;48.592;8.868;2023-04-22T05:01:34;96155.28;;;8.21;100.00
6829;BME280;17930;48.592;8.868;2023-04-22T05:04:00;96153.72;;;8.20;100.00
6829;BME280;17930;48.592;8.868;2023-04-22T05:06:28;96147.78;;;8.48;100.00
6829;BME280;17930;48.592;8.868;2023-04-22T05:08:55;96146.56;;;8.41;100.00
6829;BME280;17930;48.592;8.868;2023-04-22T05:11:22;96152.44;;;8.51;100.00
6829;BME280;17930;48.592;8.868;2023-04-22T05:13:48;96166.19;;;8.23;100.00
6829;BME280;17930;48.592;8.868;2023-04-22T05:16:15;96162.31;;;8.21;100.00
6829;BME280;17930;48.592;8.868;2023-04-22T05:18:42;96167.22;;;8.22;100.00
6829;BME280;17930;48.592;8.868;2023-04-22T05:21:08;96169.50;;;8.29;100.00
6829;BME280;17930;48.592;8.868;2023-04-22T05:23:36;96164.06;;;8.59;100.00
6829;BME280;17930;48.592;8.868;2023-04-22T05:26:03;96172.72;;;8.49;100.00
6829;BME280;17930;48.592;8.868;2023-04-22T05:28:30;96169.16;;;8.40;100.00
6829;BME280;17930;48.592;8.868;2023-04-22T05:30:57;96174.63;;;8.39;100.00
6829;BME280;17930;48.592;8.868;2023-04-22T05:33:23;96162.19;;;8.64;100.00
6829;BME280;17930;48.592;8.868;2023-04-22T05:35:50;96167.31;;;8.74;100.00
6829;BME280;17930;48.592;8.868;2023-04-22T05:38:16;96161.47;;;8.87;100.00
6829;BME280;17930;48.592;8.868;2023-04-22T05:40:44;96175.19;;;8.92;100.00
6829;BME280;17930;48.592;8.868;2023-04-22T05:43:11;96169.25;;;8.87;100.00
6829;BME280;17930;48.592;8.868;2023-04-22T05:45:37;96167.00;;;9.04;100.00
6829;BME280;17930;48.592;8.868;2023-04-22T05:48:04;96169.28;;;9.33;100.00
6829;BME280;17930;48.592;8.868;2023-04-22T05:50:31;96165.72;;;9.71;100.00
6829;BME280;17930;48.592;8.868;2023-04-22T05:52:57;96170.06;;;9.75;100.00
6829;BME280;17930;48.592;8.868;2023-04-22T05:55:24;96177.03;;;9.80;100.00
6829;BME280;17930;48.592;8.868;2023-04-22T05:57:52;96181.59;;;10.29;100.00
6829;BME280;17930;48.592;8.868;2023-04-22T06:00:19;96170.69;;;10.59;100.00
6829;BME280;17930;48.592;8.868;2023-04-22T06:02:45;96170.03;;;10.67;100.00
6829;BME280;17930;48.592;8.868;2023-04-22T06:05:13;96167.44;;;10.67;100.00
6829;BME280;17930;48.592;8.868;2023-04-22T06:07:39;96169.81;;;10.50;100.00
6829;BME280;17930;48.592;8.868;2023-04-22T06:10:07;96165.06;;;10.52;100.00
6829;BME280;17930;48.592;8.868;2023-04-22T06:12:34;96172.75;;;10.62;100.00
6829;BME280;17930;48.592;8.868;2023-04-22T06:15:03;96170.00;;;10.85;100.00
6829;BME280;17930;48.592;8.868;2023-04-22T06:17:29;96167.31;;;11.04;100.00
6829;BME280;17930;48.592;8.868;2023-04-22T06:19:56;96165.41;;;11.23;100.00
6829;BME280;17930;48.592;8.868;2023-04-22T06:22:23;96168.31;;;11.34;100.00
6829;BME280;17930;48.592;8.868;2023-04-22T06:24:49;96172.66;;;11.39;100.00
6829;BME280;17930;48.592;8.868;2023-04-22T06:27:16;96176.84;;;11.53;100.00
6829;BME280;17930;48.592;8.868;2023-04-22T06:29:43;96181.09;;;11.89;100.00
6829;BME280;17930;48.592;8.868;2023-04-22T06:32:10;96174.47;;;12.05;100.00
6829;BME280;17930;48.592;8.868;2023-04-22T06:34:37;96170.44;;;11.86;100.00
6829;BME280;17930;48.592;8.868;2023-04-22T06:37:04;96167.00;;;11.50;100.00
6829;BME280;17930;48.592;8.868;2023-04-22T06:39:30;96171.50;;;11.72;100.00
6829;BME280;17930;48.592;8.868;2023-04-22T06:41:57;96176.34;;;11.78;100.00
6829;BME280;17930;48.592;8.868;2023-04-22T06:44:24;96174.09;;;11.85;100.00
6829;BME280;17930;48.592;8.868;2023-04-22T06:46:50;96168.19;;;11.93;100.00
6829;BME280;17930;48.592;8.868;2023-04-22T06:49:18;96170.44;;;11.86;100.00
6829;BME280;17930;48.592;8.868;2023-04-22T06:51:45;96167.81;;;11.86;100.00
6829;BME280;17930;48.592;8.868;2023-04-22T06:54:11;96169.22;;;12.05;100.00
6829;BME280;17930;48.592;8.868;2023-04-22T06:56:38;96161.97;;;12.37;100.00
6829;BME280;17930;48.592;8.868;2023-04-22T06:59:05;96153.22;;;12.85;100.00
6829;BME280;17930;48.592;8.868;2023-04-22T07:01:32;96159.56;;;13.23;100.00
6829;BME280;17930;48.592;8.868;2023-04-22T07:03:58;96160.72;;;13.47;100.00
6829;BME280;17930;48.592;8.868;2023-04-22T07:06:26;96166.41;;;14.05;100.00
6829;BME280;17930;48.592;8.868;2023-04-22T07:08:53;96160.28;;;14.51;100.00
6829;BME280;17930;48.592;8.868;2023-04-22T07:11:20;96158.41;;;14.60;100.00
6829;BME280;17930;48.592;8.868;2023-04-22T07:13:47;96158.44;;;14.27;100.00
6829;BME280;17930;48.592;8.868;2023-04-22T07:16:13;96172.94;;;14.16;100.00
6829;BME280;17930;48.592;8.868;2023-04-22T07:18:40;96166.91;;;14.07;100.00
6829;BME280;17930;48.592;8.868;2023-04-22T07:21:06;96173.31;;;13.84;100.00
6829;BME280;17930;48.592;8.868;2023-04-22T07:23:34;96166.69;;;13.95;100.00
6829;BME280;17930;48.592;8.868;2023-04-22T07:26:01;96175.97;;;14.01;100.00
6829;BME280;17930;48.592;8.868;2023-04-22T07:28:28;96175.31;;;13.87;100.00
6829;BME280;17930;48.592;8.868;2023-04-22T07:30:56;96175.84;;;14.06;100.00
6829;BME280;17930;48.592;8.868;2023-04-22T07:33:23;96172.63;;;14.17;100.00
6829;BME280;17930;48.592;8.868;2023-04-22T07:35:49;96175.56;;;14.24;100.00
6829;BME280;17930;48.592;8.868;2023-04-22T07:38:16;96182.50;;;14.45;100.00
6829;BME280;17930;48.592;8.868;2023-04-22T07:40:44;96187.75;;;14.29;100.00
6829;BME280;17930;48.592;8.868;2023-04-22T07:43:10;96178.50;;;14.23;100.00
6829;BME280;17930;48.592;8.868;2023-04-22T07:45:37;96176.00;;;14.68;100.00
6829;BME280;17930;48.592;8.868;2023-04-22T07:48:04;96179.38;;;14.77;100.00
6829;BME280;17930;48.592;8.868;2023-04-22T07:50:30;96177.88;;;15.38;100.00
6829;BME280;17930;48.592;8.868;2023-04-22T07:52:57;96179.34;;;16.34;100.00
6829;BME280;17930;48.592;8.868;2023-04-22T07:55:24;96173.78;;;16.88;100.00
6829;BME280;17930;48.592;8.868;2023-04-22T07:57:52;96172.19;;;17.51;100.00
6829;BME280;17930;48.592;8.868;2023-04-22T08:00:18;96167.34;;;17.53;100.00
6829;BME280;17930;48.592;8.868;2023-04-22T08:02:45;96174.41;;;18.36;100.00
6829;BME280;17930;48.592;8.868;2023-04-22T08:05:11;96163.94;;;19.67;100.00
6829;BME280;17930;48.592;8.868;2023-04-22T08:07:38;96163.34;;;19.28;100.00
6829;BME280;17930;48.592;8.868;2023-04-22T08:10:06;96166.19;;;19.81;100.00
6829;BME280;17930;48.592;8.868;2023-04-22T08:12:33;96166.91;;;20.12;100.00
6829;BME280;17930;48.592;8.868;2023-04-22T08:15:01;96160.88;;;20.30;100.00
6829;BME280;17930;48.592;8.868;2023-04-22T08:17:27;96151.34;;;21.01;100.00
6829;BME280;17930;48.592;8.868;2023-04-22T08:19:54;96153.88;;;20.75;100.00
6829;BME280;17930;48.592;8.868;2023-04-22T08:22:21;96153.44;;;20.92;100.00
6829;BME280;17930;48.592;8.868;2023-04-22T08:24:48;96148.13;;;21.33;100.00
6829;BME280;17930;48.592;8.868;2023-04-22T08:27:15;96153.75;;;21.09;100.00
6829;BME280;17930;48.592;8.868;2023-04-22T08:29:41;96157.22;;;20.91;100.00
6829;BME280;17930;48.592;8.868;2023-04-22T08:32:09;96146.63;;;21.13;100.00
6829;BME280;17930;48.592;8.868;2023-04-22T08:34:36;96137.63;;;21.18;100.00
6829;BME280;17930;48.592;8.868;2023-04-22T08:37:02;96140.88;;;21.30;100.00
6829;BME280;17930;48.592;8.868;2023-04-22T08:39:29;96143.06;;;21.25;100.00
6829;BME280;17930;48.592;8.868;2023-04-22T08:41:56;96138.97;;;21.75;100.00
6829;BME280;17930;48.592;8.868;2023-04-22T08:44:23;96147.44;;;22.36;100.00
6829;BME280;17930;48.592;8.868;2023-04-22T08:46:51;96141.75;;;22.66;99.02
6829;BME280;17930;48.592;8.868;2023-04-22T08:49:22;96139.75;;;23.69;91.81
6829;BME280;17930;48.592;8.868;2023-04-22T08:51:49;96131.66;;;24.05;90.08
6829;BME280;17930;48.592;8.868;2023-04-22T08:54:17;96138.03;;;24.54;83.41
6829;BME280;17930;48.592;8.868;2023-04-22T08:56:44;96132.00;;;24.77;79.25
6829;BME280;17930;48.592;8.868;2023-04-22T08:59:11;96140.66;;;23.83;80.22
6829;BME280;17930;48.592;8.868;2023-04-22T09:01:39;96140.50;;;22.90;83.95
6829;BME280;17930;48.592;8.868;2023-04-22T09:04:08;96137.31;;;22.19;88.57
6829;BME280;17930;48.592;8.868;2023-04-22T09:06:37;96137.69;;;21.92;93.50
6829;BME280;17930;48.592;8.868;2023-04-22T09:09:04;96134.75;;;22.52;94.18
6829;BME280;17930;48.592;8.868;2023-04-22T09:11:32;96115.56;;;23.41;88.87
6829;BME280;17930;48.592;8.868;2023-04-22T09:13:59;96122.97;;;23.18;85.55
6829;BME280;17930;48.592;8.868;2023-04-22T09:16:29;96110.78;;;24.21;81.68
6829;BME280;17930;48.592;8.868;2023-04-22T09:18:55;96114.59;;;25.18;76.93
6829;BME280;17930;48.592;8.868;2023-04-22T09:21:24;96099.75;;;25.52;75.17
6829;BME280;17930;48.592;8.868;2023-04-22T09:23:55;96103.19;;;25.63;71.06
6829;BME280;17930;48.592;8.868;2023-04-22T09:26:22;96106.91;;;26.24;70.15
6829;BME280;17930;48.592;8.868;2023-04-22T09:28:50;96103.16;;;25.97;67.94
6829;BME280;17930;48.592;8.868;2023-04-22T09:31:17;96099.38;;;25.78;66.49
6829;BME280;17930;48.592;8.868;2023-04-22T09:33:49;96104.56;;;24.74;67.27
6829;BME280;17930;48.592;8.868;2023-04-22T09:36:15;96101.66;;;25.48;67.55
6829;BME280;17930;48.592;8.868;2023-04-22T09:39:02;96094.78;;;25.81;65.91
6829;BME280;17930;48.592;8.868;2023-04-22T09:41:31;96093.94;;;26.19;65.68
6829;BME280;17930;48.592;8.868;2023-04-22T09:43:59;96090.72;;;26.73;62.87
6829;BME280;17930;48.592;8.868;2023-04-22T09:46:27;96076.94;;;26.71;62.80
6829;BME280;17930;48.592;8.868;2023-04-22T09:48:54;96077.88;;;26.26;63.89
6829;BME280;17930;48.592;8.868;2023-04-22T09:51:22;96081.38;;;26.02;64.14
6829;BME280;17930;48.592;8.868;2023-04-22T09:53:59;96080.25;;;25.89;62.77
6829;BME280;17930;48.592;8.868;2023-04-22T09:56:44;96072.38;;;26.61;62.34
6829;BME280;17930;48.592;8.868;2023-04-22T09:59:13;96080.59;;;27.04;59.66
6829;BME280;17930;48.592;8.868;2023-04-22T10:01:41;96068.50;;;27.33;61.09
6829;BME280;17930;48.592;8.868;2023-04-22T10:04:08;96077.94;;;27.55;59.66
6829;BME280;17930;48.592;8.868;2023-04-22T10:06:36;96062.19;;;28.00;57.70
6829;BME280;17930;48.592;8.868;2023-04-22T10:09:03;96063.63;;;28.08;58.63
6829;BME280;17930;48.592;8.868;2023-04-22T10:11:30;96060.19;;;29.00;58.46
6829;BME280;17930;48.592;8.868;2023-04-22T10:13:59;96065.19;;;29.28;57.62
6829;BME280;17930;48.592;8.868;2023-04-22T10:16:28;96065.69;;;27.54;58.14
6829;BME280;17930;48.592;8.868;2023-04-22T10:18:57;96058.03;;;28.29;58.72
6829;BME280;17930;48.592;8.868;2023-04-22T10:21:25;96048.03;;;28.33;56.30
6829;BME280;17930;48.592;8.868;2023-04-22T10:23:52;96054.34;;;28.20;57.09
6829;BME280;17930;48.592;8.868;2023-04-22T10:26:38;96051.94;;;27.52;58.32
6829;BME280;17930;48.592;8.868;2023-04-22T10:29:07;96058.56;;;26.73;57.96
6829;BME280;17930;48.592;8.868;2023-04-22T10:31:36;96052.34;;;26.93;57.37
6829;BME280;17930;48.592;8.868;2023-04-22T10:34:10;96060.41;;;26.86;58.23
6829;BME280;17930;48.592;8.868;2023-04-22T10:36:54;96044.59;;;27.09;57.98
6829;BME280;17930;48.592;8.868;2023-04-22T10:39:22;96060.38;;;25.97;61.66
6829;BME280;17930;48.592;8.868;2023-04-22T10:41:50;96052.78;;;25.44;62.92
6829;BME280;17930;48.592;8.868;2023-04-22T10:44:20;96053.44;;;26.14;62.06
6829;BME280;17930;48.592;8.868;2023-04-22T10:46:58;96059.50;;;26.42;60.54
6829;BME280;17930;48.592;8.868;2023-04-22T10:49:25;96053.84;;;26.05;61.09
6829;BME280;17930;48.592;8.868;2023-04-22T10:51:55;96061.16;;;26.86;60.22
6829;BME280;17930;48.592;8.868;2023-04-22T10:54:57;96058.50;;;26.83;58.24
6829;BME280;17930;48.592;8.868;2023-04-22T10:57:40;96053.19;;;26.76;58.30
6829;BME280;17930;48.592;8.868;2023-04-22T11:00:29;96047.81;;;27.37;57.86
6829;BME280;17930;48.592;8.868;2023-04-22T11:03:14;96042.00;;;28.22;50.26
6829;BME280;17930;48.592;8.868;2023-04-22T11:05:42;96043.31;;;28.41;51.90
6829;BME280;17930;48.592;8.868;2023-04-22T11:08:19;96048.56;;;28.21;47.43
6829;BME280;17930;48.592;8.868;2023-04-22T11:10:48;96040.72;;;29.19;48.41
6829;BME280;17930;48.592;8.868;2023-04-22T11:13:16;96043.69;;;29.28;47.95
6829;BME280;17930;48.592;8.868;2023-04-22T11:15:47;96037.13;;;29.52;45.19
6829;BME280;17930;48.592;8.868;2023-04-22T11:18:17;96029.84;;;29.72;46.71
6829;BME280;17930;48.592;8.868;2023-04-22T11:20:44;96030.06;;;29.12;48.69
6829;BME280;17930;48.592;8.868;2023-04-22T11:23:16;96019.06;;;29.03;48.74
6829;BME280;17930;48.592;8.868;2023-04-22T11:25:43;96029.41;;;28.49;49.25
6829;BME280;17930;48.592;8.868;2023-04-22T11:28:10;96024.66;;;28.30;50.29
6829;BME280;17930;48.592;8.868;2023-04-22T11:30:37;96024.41;;;28.21;49.38
6829;BME280;17930;48.592;8.868;2023-04-22T11:33:05;96030.44;;;29.14;48.85
6829;BME280;17930;48.592;8.868;2023-04-22T11:35:34;96030.63;;;29.27;47.94
6829;BME280;17930;48.592;8.868;2023-04-22T11:38:02;96024.97;;;29.67;48.60
6829;BME280;17930;48.592;8.868;2023-04-22T11:40:31;96022.06;;;30.19;46.93
6829;BME280;17930;48.592;8.868;2023-04-22T11:43:00;96017.25;;;30.30;45.87
6829;BME280;17930;48.592;8.868;2023-04-22T11:45:29;96019.88;;;30.14;43.13
6829;BME280;17930;48.592;8.868;2023-04-22T11:47:56;96020.06;;;27.97;45.11
6829;BME280;17930;48.592;8.868;2023-04-22T11:50:26;96021.78;;;27.34;44.90
6829;BME280;17930;48.592;8.868;2023-04-22T11:52:54;96016.13;;;26.71;44.04
6829;BME280;17930;48.592;8.868;2023-04-22T11:55:23;96033.88;;;26.44;44.94
6829;BME280;17930;48.592;8.868;2023-04-22T11:57:55;96026.03;;;25.82;45.10
6829;BME280;17930;48.592;8.868;2023-04-22T12:00:25;96025.25;;;25.88;45.64
6829;BME280;17930;48.592;8.868;2023-04-22T12:02:55;96029.00;;;26.15;46.56
6829;BME280;17930;48.592;8.868;2023-04-22T12:05:32;96012.16;;;27.84;44.38
6829;BME280;17930;48.592;8.868;2023-04-22T12:08:00;96009.38;;;27.94;44.07
6829;BME280;17930;48.592;8.868;2023-04-22T12:10:28;96010.72;;;28.42;42.51
6829;BME280;17930;48.592;8.868;2023-04-22T12:12:54;96023.47;;;28.35;41.69
6829;BME280;17930;48.592;8.868;2023-04-22T12:15:21;96011.78;;;26.94;43.46
6829;BME280;17930;48.592;8.868;2023-04-22T12:17:49;96013.69;;;28.18;43.24
6829;BME280;17930;48.592;8.868;2023-04-22T12:20:16;96008.81;;;28.39;42.87
6829;BME280;17930;48.592;8.868;2023-04-22T12:22:44;96013.41;;;28.42;42.22
6829;BME280;17930;48.592;8.868;2023-04-22T12:25:10;96005.84;;;27.64;43.09
6829;BME280;17930;48.592;8.868;2023-04-22T12:27:37;96016.72;;;26.21;45.14
6829;BME280;17930;48.592;8.868;2023-04-22T12:30:04;96011.50;;;25.93;45.63
6829;BME280;17930;48.592;8.868;2023-04-22T12:32:31;96010.78;;;25.62;46.67
6829;BME280;17930;48.592;8.868;2023-04-22T12:34:58;96013.09;;;25.04;48.67
6829;BME280;17930;48.592;8.868;2023-04-22T12:37:25;96024.44;;;24.53;48.77
6829;BME280;17930;48.592;8.868;2023-04-22T12:39:53;96037.81;;;23.78;50.13
6829;BME280;17930;48.592;8.868;2023-04-22T12:42:20;96037.78;;;22.78;50.90
6829;BME280;17930;48.592;8.868;2023-04-22T12:44:46;96035.94;;;22.50;51.43
6829;BME280;17930;48.592;8.868;2023-04-22T12:47:13;96045.53;;;22.58;52.76
6829;BME280;17930;48.592;8.868;2023-04-22T12:49:42;96049.75;;;22.62;53.25
6829;BME280;17930;48.592;8.868;2023-04-22T12:52:11;96042.28;;;22.74;52.71
6829;BME280;17930;48.592;8.868;2023-04-22T12:54:37;96036.31;;;22.84;53.66
6829;BME280;17930;48.592;8.868;2023-04-22T12:57:05;96034.25;;;23.07;52.91
6829;BME280;17930;48.592;8.868;2023-04-22T12:59:32;96036.19;;;23.14;53.32
6829;BME280;17930;48.592;8.868;2023-04-22T13:01:58;96040.19;;;23.37;52.96
6829;BME280;17930;48.592;8.868;2023-04-22T13:04:25;96031.97;;;23.09;53.00
6829;BME280;17930;48.592;8.868;2023-04-22T13:06:52;96044.28;;;23.27;52.48
6829;BME280;17930;48.592;8.868;2023-04-22T13:09:22;96038.59;;;23.79;52.82